sensor_id;sensor_type;location;lat;lon;timestamp;P1;durP1;ratioP1;P2;durP2;ratioP2
78820;SDS011;68171;13.882;99.692;2023-11-19T00:00:03;19.90;;;10.80;;
78820;SDS011;68171;13.882;99.692;2023-11-19T00:01:17;18.80;;;12.25;;
78820;SDS011;68171;13.882;99.692;2023-11-19T00:02:23;21.17;;;11.60;;
78820;SDS011;68171;13.882;99.692;2023-11-19T00:03:30;19.58;;;10.55;;
78820;SDS011;68171;13.882;99.692;2023-11-19T00:04:38;21.70;;;12.82;;
78820;SDS011;68171;13.882;99.692;2023-11-19T00:05:44;22.88;;;12.05;;
78820;SDS011;68171;13.882;99.692;2023-11-19T00:06:51;20.70;;;12.07;;
78820;SDS011;68171;13.882;99.692;2023-11-19T00:07:56;19.50;;;11.40;;
78820;SDS011;68171;13.882;99.692;2023-11-19T00:09:03;22.53;;;11.93;;
78820;SDS011;68171;13.882;99.692;2023-11-19T00:10:09;23.75;;;11.85;;
78820;SDS011;68171;13.882;99.692;2023-11-19T00:11:16;24.27;;;12.65;;
78820;SDS011;68171;13.882;99.692;2023-11-19T00:12:26;20.17;;;11.15;;
78820;SDS011;68171;13.882;99.692;2023-11-19T00:13:32;21.55;;;12.10;;
78820;SDS011;68171;13.882;99.692;2023-11-19T00:14:38;21.17;;;11.63;;
78820;SDS011;68171;13.882;99.692;2023-11-19T00:15:45;23.30;;;10.95;;
78820;SDS011;68171;13.882;99.692;2023-11-19T00:16:51;17.15;;;11.07;;
78820;SDS011;68171;13.882;99.692;2023-11-19T00:17:57;17.02;;;11.18;;
78820;SDS011;68171;13.882;99.692;2023-11-19T00:19:03;18.05;;;10.77;;
78820;SDS011;68171;13.882;99.692;2023-11-19T00:20:12;19.23;;;11.20;;
78820;SDS011;68171;13.882;99.692;2023-11-19T00:21:18;20.40;;;11.33;;
78820;SDS011;68171;13.882;99.692;2023-11-19T00:22:25;19.38;;;11.30;;
78820;SDS011;68171;13.882;99.692;2023-11-19T00:23:31;19.38;;;11.95;;
78820;SDS011;68171;13.882;99.692;2023-11-19T00:24:38;17.73;;;10.38;;
78820;SDS011;68171;13.882;99.692;2023-11-19T00:25:43;18.20;;;10.48;;
78820;SDS011;68171;13.882;99.692;2023-11-19T00:26:51;19.65;;;10.50;;
78820;SDS011;68171;13.882;99.692;2023-11-19T00:27:56;19.27;;;11.30;;
78820;SDS011;68171;13.882;99.692;2023-11-19T00:29:03;18.35;;;11.05;;
78820;SDS011;68171;13.882;99.692;2023-11-19T00:30:09;22.90;;;10.45;;
78820;SDS011;68171;13.882;99.692;2023-11-19T00:31:17;18.60;;;11.32;;
78820;SDS011;68171;13.882;99.692;2023-11-19T00:32:22;17.67;;;10.65;;
78820;SDS011;68171;13.882;99.692;2023-11-19T00:33:29;19.75;;;11.43;;
78820;SDS011;68171;13.882;99.692;2023-11-19T00:34:35;20.50;;;10.90;;
78820;SDS011;68171;13.882;99.692;2023-11-19T00:35:43;16.58;;;10.43;;
78820;SDS011;68171;13.882;99.692;2023-11-19T00:36:49;20.83;;;11.95;;
78820;SDS011;68171;13.882;99.692;2023-11-19T00:37:56;22.95;;;11.98;;
78820;SDS011;68171;13.882;99.692;2023-11-19T00:39:01;21.13;;;11.68;;
78820;SDS011;68171;13.882;99.692;2023-11-19T00:40:09;21.70;;;11.57;;
78820;SDS011;68171;13.882;99.692;2023-11-19T00:41:15;22.92;;;11.85;;
78820;SDS011;68171;13.882;99.692;2023-11-19T00:42:22;19.15;;;11.15;;
78820;SDS011;68171;13.882;99.692;2023-11-19T00:43:28;21.13;;;11.10;;
78820;SDS011;68171;13.882;99.692;2023-11-19T00:44:34;19.40;;;11.52;;
78820;SDS011;68171;13.882;99.692;2023-11-19T00:45:53;18.98;;;11.65;;
78820;SDS011;68171;13.882;99.692;2023-11-19T00:47:00;22.77;;;11.80;;
78820;SDS011;68171;13.882;99.692;2023-11-19T00:48:05;19.17;;;11.07;;
78820;SDS011;68171;13.882;99.692;2023-11-19T00:49:12;19.85;;;12.20;;
78820;SDS011;68171;13.882;99.692;2023-11-19T00:50:18;19.27;;;10.70;;
78820;SDS011;68171;13.882;99.692;2023-11-19T00:51:27;19.60;;;10.65;;
78820;SDS011;68171;13.882;99.692;2023-11-19T00:52:34;22.27;;;11.20;;
78820;SDS011;68171;13.882;99.692;2023-11-19T00:53:41;18.73;;;11.27;;
78820;SDS011;68171;13.882;99.692;2023-11-19T00:54:47;15.70;;;10.55;;
78820;SDS011;68171;13.882;99.692;2023-11-19T00:55:54;17.13;;;10.90;;
78820;SDS011;68171;13.882;99.692;2023-11-19T00:57:00;18.75;;;10.63;;
78820;SDS011;68171;13.882;99.692;2023-11-19T00:58:23;21.02;;;11.45;;
78820;SDS011;68171;13.882;99.692;2023-11-19T00:59:28;23.83;;;11.07;;
78820;SDS011;68171;13.882;99.692;2023-11-19T01:00:36;22.10;;;9.95;;
78820;SDS011;68171;13.882;99.692;2023-11-19T01:01:41;18.45;;;9.90;;
78820;SDS011;68171;13.882;99.692;2023-11-19T01:02:48;20.58;;;10.70;;
78820;SDS011;68171;13.882;99.692;2023-11-19T01:03:54;19.88;;;11.07;;
78820;SDS011;68171;13.882;99.692;2023-11-19T01:05:02;22.73;;;10.98;;
78820;SDS011;68171;13.882;99.692;2023-11-19T01:06:08;22.10;;;11.17;;
78820;SDS011;68171;13.882;99.692;2023-11-19T01:07:16;19.85;;;10.80;;
78820;SDS011;68171;13.882;99.692;2023-11-19T01:08:22;17.00;;;11.15;;
78820;SDS011;68171;13.882;99.692;2023-11-19T01:09:28;16.58;;;10.13;;
78820;SDS011;68171;13.882;99.692;2023-11-19T01:10:36;21.02;;;11.13;;
78820;SDS011;68171;13.882;99.692;2023-11-19T01:11:43;20.55;;;11.05;;
78820;SDS011;68171;13.882;99.692;2023-11-19T01:12:49;24.70;;;12.20;;
78820;SDS011;68171;13.882;99.692;2023-11-19T01:13:55;19.48;;;10.63;;
78820;SDS011;68171;13.882;99.692;2023-11-19T01:15:01;19.65;;;11.02;;
78820;SDS011;68171;13.882;99.692;2023-11-19T01:16:09;20.83;;;11.55;;
78820;SDS011;68171;13.882;99.692;2023-11-19T01:17:16;19.15;;;10.60;;
78820;SDS011;68171;13.882;99.692;2023-11-19T01:18:23;18.52;;;11.57;;
78820;SDS011;68171;13.882;99.692;2023-11-19T01:19:28;18.87;;;10.70;;
78820;SDS011;68171;13.882;99.692;2023-11-19T01:20:36;25.80;;;11.55;;
78820;SDS011;68171;13.882;99.692;2023-11-19T01:21:41;18.85;;;10.35;;
78820;SDS011;68171;13.882;99.692;2023-11-19T01:22:50;16.15;;;10.55;;
78820;SDS011;68171;13.882;99.692;2023-11-19T01:23:55;21.58;;;10.77;;
78820;SDS011;68171;13.882;99.692;2023-11-19T01:25:03;16.65;;;10.40;;
78820;SDS011;68171;13.882;99.692;2023-11-19T01:26:10;17.93;;;10.60;;
78820;SDS011;68171;13.882;99.692;2023-11-19T01:27:16;21.15;;;10.68;;
78820;SDS011;68171;13.882;99.692;2023-11-19T01:28:22;21.42;;;10.80;;
78820;SDS011;68171;13.882;99.692;2023-11-19T01:29:28;18.58;;;10.43;;
78820;SDS011;68171;13.882;99.692;2023-11-19T01:30:34;18.30;;;10.85;;
78820;SDS011;68171;13.882;99.692;2023-11-19T01:31:40;19.35;;;10.88;;
78820;SDS011;68171;13.882;99.692;2023-11-19T01:32:47;15.80;;;9.43;;
78820;SDS011;68171;13.882;99.692;2023-11-19T01:33:55;19.80;;;9.40;;
78820;SDS011;68171;13.882;99.692;2023-11-19T01:35:01;16.73;;;9.80;;
78820;SDS011;68171;13.882;99.692;2023-11-19T01:36:08;17.25;;;9.63;;
78820;SDS011;68171;13.882;99.692;2023-11-19T01:37:15;17.08;;;9.90;;
78820;SDS011;68171;13.882;99.692;2023-11-19T01:38:22;17.77;;;10.25;;
78820;SDS011;68171;13.882;99.692;2023-11-19T01:39:29;24.10;;;9.98;;
78820;SDS011;68171;13.882;99.692;2023-11-19T01:40:34;19.13;;;9.90;;
78820;SDS011;68171;13.882;99.692;2023-11-19T01:41:41;16.30;;;9.43;;
78820;SDS011;68171;13.882;99.692;2023-11-19T01:42:47;17.10;;;9.77;;
78820;SDS011;68171;13.882;99.692;2023-11-19T01:43:53;15.48;;;9.95;;
78820;SDS011;68171;13.882;99.692;2023-11-19T01:45:00;18.90;;;10.05;;
78820;SDS011;68171;13.882;99.692;2023-11-19T01:46:06;18.27;;;8.63;;
78820;SDS011;68171;13.882;99.692;2023-11-19T01:47:13;15.95;;;9.45;;
78820;SDS011;68171;13.882;99.692;2023-11-19T01:48:18;17.27;;;10.27;;
78820;SDS011;68171;13.882;99.692;2023-11-19T01:49:25;17.08;;;9.50;;
78820;SDS011;68171;13.882;99.692;2023-11-19T01:50:32;18.67;;;10.43;;
78820;SDS011;68171;13.882;99.692;2023-11-19T01:51:40;19.02;;;9.90;;
78820;SDS011;68171;13.882;99.692;2023-11-19T01:52:46;16.55;;;9.02;;
78820;SDS011;68171;13.882;99.692;2023-11-19T01:53:57;16.13;;;9.25;;
78820;SDS011;68171;13.882;99.692;2023-11-19T01:55:02;15.50;;;9.68;;
78820;SDS011;68171;13.882;99.692;2023-11-19T01:56:10;20.73;;;9.30;;
78820;SDS011;68171;13.882;99.692;2023-11-19T01:57:18;15.32;;;9.85;;
78820;SDS011;68171;13.882;99.692;2023-11-19T01:58:23;23.02;;;10.25;;
78820;SDS011;68171;13.882;99.692;2023-11-19T01:59:31;16.10;;;9.35;;
78820;SDS011;68171;13.882;99.692;2023-11-19T02:00:36;18.00;;;9.57;;
78820;SDS011;68171;13.882;99.692;2023-11-19T02:01:44;17.33;;;9.40;;
78820;SDS011;68171;13.882;99.692;2023-11-19T02:03:01;16.58;;;9.40;;
78820;SDS011;68171;13.882;99.692;2023-11-19T02:04:10;16.05;;;10.18;;
78820;SDS011;68171;13.882;99.692;2023-11-19T02:05:18;14.77;;;9.33;;
78820;SDS011;68171;13.882;99.692;2023-11-19T02:06:25;15.45;;;9.07;;
78820;SDS011;68171;13.882;99.692;2023-11-19T02:07:31;14.85;;;9.23;;
78820;SDS011;68171;13.882;99.692;2023-11-19T02:08:38;19.63;;;9.75;;
78820;SDS011;68171;13.882;99.692;2023-11-19T02:09:45;16.50;;;9.43;;
78820;SDS011;68171;13.882;99.692;2023-11-19T02:10:51;20.52;;;9.88;;
78820;SDS011;68171;13.882;99.692;2023-11-19T02:11:58;17.92;;;9.27;;
78820;SDS011;68171;13.882;99.692;2023-11-19T02:13:05;19.90;;;9.98;;
78820;SDS011;68171;13.882;99.692;2023-11-19T02:14:10;17.73;;;9.30;;
78820;SDS011;68171;13.882;99.692;2023-11-19T02:15:17;18.03;;;9.70;;
78820;SDS011;68171;13.882;99.692;2023-11-19T02:16:23;15.65;;;8.88;;
78820;SDS011;68171;13.882;99.692;2023-11-19T02:17:30;18.00;;;9.70;;
78820;SDS011;68171;13.882;99.692;2023-11-19T02:18:37;16.10;;;9.35;;
78820;SDS011;68171;13.882;99.692;2023-11-19T02:19:44;19.92;;;9.55;;
78820;SDS011;68171;13.882;99.692;2023-11-19T02:20:49;16.63;;;9.98;;
78820;SDS011;68171;13.882;99.692;2023-11-19T02:21:55;15.43;;;8.88;;
78820;SDS011;68171;13.882;99.692;2023-11-19T02:23:02;16.48;;;8.65;;
78820;SDS011;68171;13.882;99.692;2023-11-19T02:24:07;16.27;;;8.70;;
78820;SDS011;68171;13.882;99.692;2023-11-19T02:25:19;16.00;;;9.50;;
78820;SDS011;68171;13.882;99.692;2023-11-19T02:26:28;13.37;;;9.07;;
78820;SDS011;68171;13.882;99.692;2023-11-19T02:27:45;16.08;;;9.48;;
78820;SDS011;68171;13.882;99.692;2023-11-19T02:28:59;17.38;;;9.32;;
78820;SDS011;68171;13.882;99.692;2023-11-19T02:30:10;17.55;;;9.13;;
78820;SDS011;68171;13.882;99.692;2023-11-19T02:31:17;16.90;;;9.50;;
78820;SDS011;68171;13.882;99.692;2023-11-19T02:32:27;18.10;;;9.70;;
78820;SDS011;68171;13.882;99.692;2023-11-19T02:33:34;16.73;;;9.70;;
78820;SDS011;68171;13.882;99.692;2023-11-19T02:34:41;18.30;;;9.93;;
78820;SDS011;68171;13.882;99.692;2023-11-19T02:35:46;16.70;;;10.40;;
78820;SDS011;68171;13.882;99.692;2023-11-19T02:36:53;17.30;;;9.48;;
78820;SDS011;68171;13.882;99.692;2023-11-19T02:37:59;15.60;;;9.90;;
78820;SDS011;68171;13.882;99.692;2023-11-19T02:39:07;19.80;;;10.23;;
78820;SDS011;68171;13.882;99.692;2023-11-19T02:40:15;15.43;;;9.45;;
78820;SDS011;68171;13.882;99.692;2023-11-19T02:41:22;19.65;;;9.57;;
78820;SDS011;68171;13.882;99.692;2023-11-19T02:42:27;17.67;;;9.50;;
78820;SDS011;68171;13.882;99.692;2023-11-19T02:43:36;16.73;;;9.60;;
78820;SDS011;68171;13.882;99.692;2023-11-19T02:44:43;15.13;;;9.35;;
78820;SDS011;68171;13.882;99.692;2023-11-19T02:45:52;16.08;;;9.52;;
78820;SDS011;68171;13.882;99.692;2023-11-19T02:46:59;16.80;;;9.98;;
78820;SDS011;68171;13.882;99.692;2023-11-19T02:48:06;15.70;;;9.10;;
78820;SDS011;68171;13.882;99.692;2023-11-19T02:49:13;15.30;;;9.80;;
78820;SDS011;68171;13.882;99.692;2023-11-19T02:50:20;15.85;;;9.02;;
78820;SDS011;68171;13.882;99.692;2023-11-19T02:51:28;18.75;;;10.10;;
78820;SDS011;68171;13.882;99.692;2023-11-19T02:52:35;17.98;;;9.27;;
78820;SDS011;68171;13.882;99.692;2023-11-19T02:53:41;15.50;;;9.50;;
78820;SDS011;68171;13.882;99.692;2023-11-19T02:54:47;13.52;;;9.05;;
78820;SDS011;68171;13.882;99.692;2023-11-19T02:55:54;14.90;;;9.50;;
78820;SDS011;68171;13.882;99.692;2023-11-19T02:57:04;18.17;;;9.85;;
78820;SDS011;68171;13.882;99.692;2023-11-19T02:58:23;18.02;;;9.70;;
78820;SDS011;68171;13.882;99.692;2023-11-19T02:59:33;18.33;;;9.85;;
78820;SDS011;68171;13.882;99.692;2023-11-19T03:00:42;19.20;;;9.97;;
78820;SDS011;68171;13.882;99.692;2023-11-19T03:01:57;24.52;;;9.23;;
78820;SDS011;68171;13.882;99.692;2023-11-19T03:03:03;18.08;;;9.32;;
78820;SDS011;68171;13.882;99.692;2023-11-19T03:04:21;17.13;;;9.07;;
78820;SDS011;68171;13.882;99.692;2023-11-19T03:05:28;14.10;;;9.18;;
78820;SDS011;68171;13.882;99.692;2023-11-19T03:06:33;18.50;;;8.75;;
78820;SDS011;68171;13.882;99.692;2023-11-19T03:07:41;14.85;;;9.00;;
78820;SDS011;68171;13.882;99.692;2023-11-19T03:08:49;14.15;;;8.68;;
78820;SDS011;68171;13.882;99.692;2023-11-19T03:09:56;14.95;;;9.38;;
78820;SDS011;68171;13.882;99.692;2023-11-19T03:11:01;15.23;;;9.18;;
78820;SDS011;68171;13.882;99.692;2023-11-19T03:12:08;24.17;;;9.30;;
78820;SDS011;68171;13.882;99.692;2023-11-19T03:13:14;16.60;;;9.68;;
78820;SDS011;68171;13.882;99.692;2023-11-19T03:14:21;19.13;;;8.80;;
78820;SDS011;68171;13.882;99.692;2023-11-19T03:15:28;17.02;;;8.93;;
78820;SDS011;68171;13.882;99.692;2023-11-19T03:16:35;12.45;;;8.25;;
78820;SDS011;68171;13.882;99.692;2023-11-19T03:17:41;13.75;;;9.10;;
78820;SDS011;68171;13.882;99.692;2023-11-19T03:18:48;20.67;;;9.45;;
78820;SDS011;68171;13.882;99.692;2023-11-19T03:19:53;17.80;;;8.60;;
78820;SDS011;68171;13.882;99.692;2023-11-19T03:21:00;22.10;;;9.73;;
78820;SDS011;68171;13.882;99.692;2023-11-19T03:22:06;13.95;;;9.25;;
78820;SDS011;68171;13.882;99.692;2023-11-19T03:23:14;15.80;;;8.87;;
78820;SDS011;68171;13.882;99.692;2023-11-19T03:24:19;16.92;;;9.40;;
78820;SDS011;68171;13.882;99.692;2023-11-19T03:25:26;16.52;;;8.80;;
78820;SDS011;68171;13.882;99.692;2023-11-19T03:26:36;14.18;;;8.73;;
78820;SDS011;68171;13.882;99.692;2023-11-19T03:27:43;16.27;;;9.35;;
78820;SDS011;68171;13.882;99.692;2023-11-19T03:28:48;13.48;;;9.07;;
78820;SDS011;68171;13.882;99.692;2023-11-19T03:29:55;17.38;;;9.38;;
78820;SDS011;68171;13.882;99.692;2023-11-19T03:31:03;14.50;;;8.25;;
78820;SDS011;68171;13.882;99.692;2023-11-19T03:32:11;12.48;;;8.20;;
78820;SDS011;68171;13.882;99.692;2023-11-19T03:33:17;15.43;;;8.32;;
78820;SDS011;68171;13.882;99.692;2023-11-19T03:34:24;18.37;;;8.90;;
78820;SDS011;68171;13.882;99.692;2023-11-19T03:35:29;15.68;;;8.50;;
78820;SDS011;68171;13.882;99.692;2023-11-19T03:36:36;14.88;;;8.57;;
78820;SDS011;68171;13.882;99.692;2023-11-19T03:37:43;13.60;;;7.82;;
78820;SDS011;68171;13.882;99.692;2023-11-19T03:38:48;15.32;;;8.32;;
78820;SDS011;68171;13.882;99.692;2023-11-19T03:39:56;13.70;;;7.70;;
78820;SDS011;68171;13.882;99.692;2023-11-19T03:41:10;18.02;;;8.88;;
78820;SDS011;68171;13.882;99.692;2023-11-19T03:42:17;17.55;;;8.43;;
78820;SDS011;68171;13.882;99.692;2023-11-19T03:43:24;17.05;;;8.90;;
78820;SDS011;68171;13.882;99.692;2023-11-19T03:44:31;16.63;;;7.95;;
78820;SDS011;68171;13.882;99.692;2023-11-19T03:45:36;17.40;;;8.23;;
78820;SDS011;68171;13.882;99.692;2023-11-19T03:46:44;16.67;;;8.55;;
78820;SDS011;68171;13.882;99.692;2023-11-19T03:47:50;15.48;;;7.90;;
78820;SDS011;68171;13.882;99.692;2023-11-19T03:48:57;15.57;;;8.15;;
78820;SDS011;68171;13.882;99.692;2023-11-19T03:50:03;14.75;;;8.35;;
78820;SDS011;68171;13.882;99.692;2023-11-19T03:51:11;17.48;;;7.72;;
78820;SDS011;68171;13.882;99.692;2023-11-19T03:52:18;12.45;;;8.02;;
78820;SDS011;68171;13.882;99.692;2023-11-19T03:53:25;12.82;;;7.85;;
78820;SDS011;68171;13.882;99.692;2023-11-19T03:54:30;13.73;;;8.45;;
78820;SDS011;68171;13.882;99.692;2023-11-19T03:55:36;15.48;;;7.78;;
78820;SDS011;68171;13.882;99.692;2023-11-19T03:56:43;12.70;;;7.70;;
78820;SDS011;68171;13.882;99.692;2023-11-19T03:57:48;13.63;;;8.65;;
78820;SDS011;68171;13.882;99.692;2023-11-19T03:58:55;16.83;;;8.70;;
78820;SDS011;68171;13.882;99.692;2023-11-19T04:00:00;18.80;;;8.70;;
78820;SDS011;68171;13.882;99.692;2023-11-19T04:01:13;14.35;;;7.82;;
78820;SDS011;68171;13.882;99.692;2023-11-19T04:02:21;12.73;;;8.15;;
78820;SDS011;68171;13.882;99.692;2023-11-19T04:03:31;15.57;;;7.90;;
78820;SDS011;68171;13.882;99.692;2023-11-19T04:04:36;14.27;;;8.07;;
78820;SDS011;68171;13.882;99.692;2023-11-19T04:05:44;14.40;;;8.55;;
78820;SDS011;68171;13.882;99.692;2023-11-19T04:06:49;13.95;;;8.68;;
78820;SDS011;68171;13.882;99.692;2023-11-19T04:07:56;17.23;;;8.27;;
78820;SDS011;68171;13.882;99.692;2023-11-19T04:09:01;16.35;;;9.60;;
78820;SDS011;68171;13.882;99.692;2023-11-19T04:10:08;19.63;;;8.63;;
78820;SDS011;68171;13.882;99.692;2023-11-19T04:11:14;12.82;;;8.55;;
78820;SDS011;68171;13.882;99.692;2023-11-19T04:12:20;13.93;;;8.32;;
78820;SDS011;68171;13.882;99.692;2023-11-19T04:13:26;15.75;;;8.48;;
78820;SDS011;68171;13.882;99.692;2023-11-19T04:14:32;15.40;;;8.43;;
78820;SDS011;68171;13.882;99.692;2023-11-19T04:15:38;12.18;;;8.00;;
78820;SDS011;68171;13.882;99.692;2023-11-19T04:16:45;15.10;;;8.13;;
78820;SDS011;68171;13.882;99.692;2023-11-19T04:17:52;13.05;;;8.00;;
78820;SDS011;68171;13.882;99.692;2023-11-19T04:18:59;12.90;;;8.13;;
78820;SDS011;68171;13.882;99.692;2023-11-19T04:20:07;13.15;;;8.55;;
78820;SDS011;68171;13.882;99.692;2023-11-19T04:21:17;14.98;;;7.80;;
78820;SDS011;68171;13.882;99.692;2023-11-19T04:22:22;14.52;;;8.23;;
78820;SDS011;68171;13.882;99.692;2023-11-19T04:23:29;15.95;;;8.45;;
78820;SDS011;68171;13.882;99.692;2023-11-19T04:24:35;11.93;;;7.00;;
78820;SDS011;68171;13.882;99.692;2023-11-19T04:25:41;13.55;;;8.27;;
78820;SDS011;68171;13.882;99.692;2023-11-19T04:26:47;13.50;;;7.72;;
78820;SDS011;68171;13.882;99.692;2023-11-19T04:27:54;14.45;;;8.05;;
78820;SDS011;68171;13.882;99.692;2023-11-19T04:28:59;16.25;;;7.82;;
78820;SDS011;68171;13.882;99.692;2023-11-19T04:30:06;15.33;;;8.17;;
78820;SDS011;68171;13.882;99.692;2023-11-19T04:31:32;13.05;;;7.72;;
78820;SDS011;68171;13.882;99.692;2023-11-19T04:32:39;13.48;;;7.63;;
78820;SDS011;68171;13.882;99.692;2023-11-19T04:33:46;12.63;;;7.18;;
78820;SDS011;68171;13.882;99.692;2023-11-19T04:34:53;12.93;;;7.80;;
78820;SDS011;68171;13.882;99.692;2023-11-19T04:35:58;12.13;;;7.38;;
78820;SDS011;68171;13.882;99.692;2023-11-19T04:37:06;16.67;;;8.45;;
78820;SDS011;68171;13.882;99.692;2023-11-19T04:38:16;14.60;;;8.13;;
78820;SDS011;68171;13.882;99.692;2023-11-19T04:39:22;14.98;;;7.65;;
78820;SDS011;68171;13.882;99.692;2023-11-19T04:40:28;10.80;;;7.22;;
78820;SDS011;68171;13.882;99.692;2023-11-19T04:41:34;17.07;;;7.63;;
78820;SDS011;68171;13.882;99.692;2023-11-19T04:42:41;10.85;;;7.35;;
78820;SDS011;68171;13.882;99.692;2023-11-19T04:43:46;10.73;;;7.15;;
78820;SDS011;68171;13.882;99.692;2023-11-19T04:44:53;16.70;;;7.50;;
78820;SDS011;68171;13.882;99.692;2023-11-19T04:45:58;15.27;;;7.93;;
78820;SDS011;68171;13.882;99.692;2023-11-19T04:47:05;14.50;;;7.78;;
78820;SDS011;68171;13.882;99.692;2023-11-19T04:48:11;13.38;;;7.30;;
78820;SDS011;68171;13.882;99.692;2023-11-19T04:49:19;12.65;;;7.78;;
78820;SDS011;68171;13.882;99.692;2023-11-19T04:50:24;14.98;;;7.10;;
78820;SDS011;68171;13.882;99.692;2023-11-19T04:51:32;14.80;;;7.35;;
78820;SDS011;68171;13.882;99.692;2023-11-19T04:52:43;15.17;;;7.20;;
78820;SDS011;68171;13.882;99.692;2023-11-19T04:53:50;8.93;;;6.32;;
78820;SDS011;68171;13.882;99.692;2023-11-19T04:54:55;12.23;;;7.35;;
78820;SDS011;68171;13.882;99.692;2023-11-19T04:56:07;11.25;;;6.75;;
78820;SDS011;68171;13.882;99.692;2023-11-19T04:57:13;12.68;;;7.45;;
78820;SDS011;68171;13.882;99.692;2023-11-19T04:58:20;12.95;;;7.15;;
78820;SDS011;68171;13.882;99.692;2023-11-19T04:59:26;11.30;;;6.75;;
78820;SDS011;68171;13.882;99.692;2023-11-19T05:00:32;11.15;;;6.82;;
78820;SDS011;68171;13.882;99.692;2023-11-19T05:01:38;13.75;;;6.88;;
78820;SDS011;68171;13.882;99.692;2023-11-19T05:02:44;15.77;;;7.60;;
78820;SDS011;68171;13.882;99.692;2023-11-19T05:03:50;17.30;;;7.00;;
78820;SDS011;68171;13.882;99.692;2023-11-19T05:04:59;12.90;;;7.07;;
78820;SDS011;68171;13.882;99.692;2023-11-19T05:06:05;19.15;;;11.38;;
78820;SDS011;68171;13.882;99.692;2023-11-19T05:07:12;12.70;;;7.32;;
78820;SDS011;68171;13.882;99.692;2023-11-19T05:08:17;11.75;;;7.07;;
78820;SDS011;68171;13.882;99.692;2023-11-19T05:09:24;17.08;;;7.30;;
78820;SDS011;68171;13.882;99.692;2023-11-19T05:10:29;10.30;;;6.72;;
78820;SDS011;68171;13.882;99.692;2023-11-19T05:11:36;14.05;;;6.82;;
78820;SDS011;68171;13.882;99.692;2023-11-19T05:12:53;15.75;;;7.15;;
78820;SDS011;68171;13.882;99.692;2023-11-19T05:14:00;13.13;;;6.75;;
78820;SDS011;68171;13.882;99.692;2023-11-19T05:15:07;16.20;;;7.47;;
78820;SDS011;68171;13.882;99.692;2023-11-19T05:16:15;12.23;;;6.50;;
78820;SDS011;68171;13.882;99.692;2023-11-19T05:17:21;14.68;;;7.38;;
78820;SDS011;68171;13.882;99.692;2023-11-19T05:18:28;14.50;;;7.20;;
78820;SDS011;68171;13.882;99.692;2023-11-19T05:19:33;14.50;;;7.45;;
78820;SDS011;68171;13.882;99.692;2023-11-19T05:20:42;13.30;;;7.15;;
78820;SDS011;68171;13.882;99.692;2023-11-19T05:21:47;13.88;;;7.10;;
78820;SDS011;68171;13.882;99.692;2023-11-19T05:22:55;14.80;;;7.72;;
78820;SDS011;68171;13.882;99.692;2023-11-19T05:24:05;11.07;;;6.60;;
78820;SDS011;68171;13.882;99.692;2023-11-19T05:25:15;14.70;;;7.53;;
78820;SDS011;68171;13.882;99.692;2023-11-19T05:26:21;11.83;;;7.00;;
78820;SDS011;68171;13.882;99.692;2023-11-19T05:27:28;13.65;;;7.20;;
78820;SDS011;68171;13.882;99.692;2023-11-19T05:28:34;15.18;;;7.20;;
78820;SDS011;68171;13.882;99.692;2023-11-19T05:29:40;15.45;;;7.22;;
78820;SDS011;68171;13.882;99.692;2023-11-19T05:30:47;10.63;;;6.68;;
78820;SDS011;68171;13.882;99.692;2023-11-19T05:31:53;14.45;;;7.10;;
78820;SDS011;68171;13.882;99.692;2023-11-19T05:32:59;11.23;;;6.97;;
78820;SDS011;68171;13.882;99.692;2023-11-19T05:34:06;14.63;;;7.32;;
78820;SDS011;68171;13.882;99.692;2023-11-19T05:35:11;11.60;;;7.65;;
78820;SDS011;68171;13.882;99.692;2023-11-19T05:36:20;12.27;;;6.90;;
78820;SDS011;68171;13.882;99.692;2023-11-19T05:37:25;11.60;;;6.90;;
78820;SDS011;68171;13.882;99.692;2023-11-19T05:38:32;10.73;;;6.82;;
78820;SDS011;68171;13.882;99.692;2023-11-19T05:39:37;14.07;;;6.97;;
78820;SDS011;68171;13.882;99.692;2023-11-19T05:40:44;12.90;;;7.13;;
78820;SDS011;68171;13.882;99.692;2023-11-19T05:41:51;15.20;;;6.90;;
78820;SDS011;68171;13.882;99.692;2023-11-19T05:42:58;14.13;;;5.70;;
78820;SDS011;68171;13.882;99.692;2023-11-19T05:44:03;11.25;;;6.22;;
78820;SDS011;68171;13.882;99.692;2023-11-19T05:45:10;11.43;;;6.53;;
78820;SDS011;68171;13.882;99.692;2023-11-19T05:46:16;11.55;;;6.88;;
78820;SDS011;68171;13.882;99.692;2023-11-19T05:47:23;11.55;;;6.90;;
78820;SDS011;68171;13.882;99.692;2023-11-19T05:48:28;12.30;;;6.60;;
78820;SDS011;68171;13.882;99.692;2023-11-19T05:49:35;15.48;;;7.22;;
78820;SDS011;68171;13.882;99.692;2023-11-19T05:50:41;14.20;;;6.97;;
78820;SDS011;68171;13.882;99.692;2023-11-19T05:51:49;10.27;;;6.78;;
78820;SDS011;68171;13.882;99.692;2023-11-19T05:52:55;10.80;;;6.50;;
78820;SDS011;68171;13.882;99.692;2023-11-19T05:54:02;9.82;;;6.05;;
78820;SDS011;68171;13.882;99.692;2023-11-19T05:55:08;12.05;;;6.22;;
78820;SDS011;68171;13.882;99.692;2023-11-19T05:56:14;14.13;;;6.20;;
78820;SDS011;68171;13.882;99.692;2023-11-19T05:57:26;9.82;;;6.10;;
78820;SDS011;68171;13.882;99.692;2023-11-19T05:58:47;15.88;;;6.90;;
78820;SDS011;68171;13.882;99.692;2023-11-19T05:59:52;12.53;;;6.10;;
78820;SDS011;68171;13.882;99.692;2023-11-19T06:00:59;10.75;;;6.57;;
78820;SDS011;68171;13.882;99.692;2023-11-19T06:02:05;12.80;;;6.30;;
78820;SDS011;68171;13.882;99.692;2023-11-19T06:03:11;9.45;;;6.40;;
78820;SDS011;68171;13.882;99.692;2023-11-19T06:04:17;12.55;;;6.53;;
78820;SDS011;68171;13.882;99.692;2023-11-19T06:05:24;16.15;;;6.70;;
78820;SDS011;68171;13.882;99.692;2023-11-19T06:06:29;12.52;;;6.38;;
78820;SDS011;68171;13.882;99.692;2023-11-19T06:07:37;16.45;;;6.60;;
78820;SDS011;68171;13.882;99.692;2023-11-19T06:08:45;11.27;;;6.53;;
78820;SDS011;68171;13.882;99.692;2023-11-19T06:09:52;11.75;;;6.43;;
78820;SDS011;68171;13.882;99.692;2023-11-19T06:10:57;15.00;;;5.77;;
78820;SDS011;68171;13.882;99.692;2023-11-19T06:12:04;11.93;;;6.38;;
78820;SDS011;68171;13.882;99.692;2023-11-19T06:13:10;9.38;;;6.13;;
78820;SDS011;68171;13.882;99.692;2023-11-19T06:14:18;9.50;;;5.80;;
78820;SDS011;68171;13.882;99.692;2023-11-19T06:15:24;12.00;;;5.85;;
78820;SDS011;68171;13.882;99.692;2023-11-19T06:16:31;14.63;;;6.20;;
78820;SDS011;68171;13.882;99.692;2023-11-19T06:17:37;11.65;;;6.28;;
78820;SDS011;68171;13.882;99.692;2023-11-19T06:18:44;10.73;;;6.70;;
78820;SDS011;68171;13.882;99.692;2023-11-19T06:19:49;10.55;;;6.63;;
78820;SDS011;68171;13.882;99.692;2023-11-19T06:20:56;11.45;;;6.45;;
78820;SDS011;68171;13.882;99.692;2023-11-19T06:22:01;11.80;;;5.70;;
78820;SDS011;68171;13.882;99.692;2023-11-19T06:23:10;10.55;;;6.05;;
78820;SDS011;68171;13.882;99.692;2023-11-19T06:24:16;12.77;;;6.40;;
78820;SDS011;68171;13.882;99.692;2023-11-19T06:25:23;12.23;;;6.68;;
78820;SDS011;68171;13.882;99.692;2023-11-19T06:26:28;11.00;;;6.47;;
78820;SDS011;68171;13.882;99.692;2023-11-19T06:27:35;11.57;;;6.10;;
78820;SDS011;68171;13.882;99.692;2023-11-19T06:28:40;12.23;;;6.45;;
78820;SDS011;68171;13.882;99.692;2023-11-19T06:29:47;12.90;;;6.50;;
78820;SDS011;68171;13.882;99.692;2023-11-19T06:30:52;11.13;;;6.22;;